Time;durP1;ratioP1;P1;durP2;ratioP2;P2;SDS_P1;SDS_P2;PMS_P1;PMS_P2;Temp;Humidity;BMP_temperature;BMP_pressure;BME280_temperature;BME280_humidity;BME280_pressure;Samples;Min_cycle;Max_cycle;Signal;HPM_P1;HPM_P2
2022/10/24 00:01:44;;;;;;;4.40;2.80;;;10.00;99.90;11.70;96951.00;;;;4982987;28;20261;-63
2022/10/24 00:04:36;;;;;;;3.10;2.83;;;10.10;99.90;11.90;96965.00;;;;4992235;28;20206;-65
2022/10/24 00:07:25;;;;;;;3.10;2.70;;;10.30;99.90;11.70;96955.00;;;;4991297;28;20573;-65
2022/10/24 00:10:14;;;;;;;3.80;3.13;;;10.40;99.90;11.90;96947.00;;;;4991346;28;20242;-65
2022/10/24 00:13:04;;;;;;;5.30;3.13;;;10.50;99.90;12.10;96943.00;;;;4986600;28;20624;-65
2022/10/24 00:15:52;;;;;;;6.40;2.50;;;10.50;99.90;11.60;96949.00;;;;4989508;28;20210;-65
2022/10/24 00:18:41;;;;;;;5.57;3.27;;;10.50;99.90;11.30;96958.00;;;;4991787;28;20305;-65
2022/10/24 00:21:31;;;;;;;3.67;2.50;;;10.40;99.90;11.30;96939.00;;;;4991781;28;20784;-64
2022/10/24 00:24:20;;;;;;;7.10;2.07;;;10.20;99.90;11.10;96935.00;;;;4991893;28;20267;-63
2022/10/24 00:27:09;;;;;;;6.60;3.60;;;10.10;99.90;10.90;96931.00;;;;4993769;28;20685;-64
2022/10/24 00:29:58;;;;;;;5.30;3.93;;;10.00;99.90;10.90;96925.00;;;;4989034;28;20682;-65
2022/10/24 00:32:46;;;;;;;7.63;2.33;;;10.00;99.90;11.10;96933.00;;;;4990391;28;20738;-65
2022/10/24 00:35:35;;;;;;;4.97;3.13;;;9.90;99.90;11.20;96931.00;;;;4989268;28;20202;-64
2022/10/24 00:38:25;;;;;;;6.53;2.60;;;10.00;99.90;11.60;96932.00;;;;5009745;28;20586;-64
2022/10/24 00:41:16;;;;;;;6.83;3.17;;;10.10;99.90;11.50;96925.00;;;;4987190;28;20603;-64
2022/10/24 00:44:22;;;;;;;4.43;2.67;;;10.10;99.90;11.40;96923.00;;;;4989619;28;20203;-64
2022/10/24 00:47:15;;;;;;;3.00;2.70;;;10.20;99.90;11.20;96922.00;;;;4987829;28;20222;-64
2022/10/24 00:50:14;;;;;;;4.10;2.47;;;10.10;99.90;10.60;96922.00;;;;4978894;28;20681;-65
2022/10/24 00:53:02;;;;;;;3.17;2.77;;;10.00;99.90;10.80;96928.00;;;;4991678;28;20261;-65
2022/10/24 00:55:55;;;;;;;5.20;2.93;;;9.90;99.90;10.90;96924.00;;;;4988046;28;20628;-62
2022/10/24 00:58:45;;;;;;;2.97;2.10;;;9.90;99.90;11.10;96921.00;;;;4991856;23;20235;-68
2022/10/24 01:01:36;;;;;;;4.20;2.30;;;9.90;99.90;11.00;96914.00;;;;4961091;28;20208;-70
2022/10/24 01:04:24;;;;;;;7.27;3.60;;;9.90;99.90;11.10;96914.00;;;;4976762;28;20195;-69
2022/10/24 01:07:29;;;;;;;6.33;2.87;;;10.00;99.90;10.90;96903.00;;;;4980625;28;20317;-70
2022/10/24 01:10:34;;;;;;;4.50;2.73;;;10.10;99.90;11.10;96910.00;;;;4977643;28;20229;-69
2022/10/24 01:13:41;;;;;;;3.50;2.90;;;10.10;99.90;11.40;96922.00;;;;4971262;28;20221;-70
2022/10/24 01:16:37;;;;;;;4.30;3.30;;;10.10;99.90;10.80;96911.00;;;;4972050;28;20285;-72
2022/10/24 01:20:03;;;;;;;2.73;2.50;;;10.00;99.90;10.80;96908.00;;;;4969799;28;20620;-69
2022/10/24 01:23:13;;;;;;;5.53;2.80;;;9.90;99.90;11.10;96912.00;;;;4961860;28;20769;-69
2022/10/24 01:26:34;;;;;;;3.77;2.70;;;9.90;99.90;11.00;96901.00;;;;4975004;28;20326;-70
2022/10/24 01:29:48;;;;;;;4.70;2.50;;;9.80;99.90;11.00;96901.00;;;;4968907;28;20671;-71
2022/10/24 01:32:48;;;;;;;4.17;2.87;;;9.90;99.90;11.50;96913.00;;;;4969803;28;20212;-69
2022/10/24 01:35:41;;;;;;;5.10;3.17;;;10.00;99.90;11.60;96907.00;;;;4971032;28;20686;-69
2022/10/24 01:38:35;;;;;;;4.37;3.13;;;10.10;99.90;11.00;96898.00;;;;4970424;28;20932;-72
2022/10/24 01:41:29;;;;;;;4.60;2.97;;;10.10;99.90;11.00;96898.00;;;;4967492;28;20199;-69
2022/10/24 01:44:24;;;;;;;4.17;2.47;;;10.00;99.90;11.30;96901.00;;;;4970334;28;20293;-69
2022/10/24 01:47:18;;;;;;;7.80;2.70;;;10.00;99.90;11.10;96905.00;;;;4967564;28;20726;-69
2022/10/24 01:50:12;;;;;;;5.83;3.07;;;10.00;99.90;11.10;96892.00;;;;4957720;28;20262;-69
2022/10/24 01:53:02;;;;;;;4.20;3.00;;;10.00;99.90;11.00;96890.00;;;;4970812;28;20215;-69
2022/10/24 01:55:51;;;;;;;3.60;2.97;;;9.90;99.90;11.30;96897.00;;;;4966528;28;20274;-69
2022/10/24 01:58:39;;;;;;;5.03;3.23;;;10.00;99.90;11.20;96898.00;;;;4970340;28;20238;-70
2022/10/24 02:01:29;;;;;;;4.03;3.20;;;10.00;99.90;11.20;96892.00;;;;4967933;28;20212;-69
2022/10/24 02:04:19;;;;;;;3.10;2.77;;;10.00;99.90;11.30;96890.00;;;;4971804;28;20231;-69
2022/10/24 02:07:12;;;;;;;2.50;2.30;;;10.00;99.90;11.10;96892.00;;;;4973534;28;20292;-71
2022/10/24 02:10:07;;;;;;;4.53;3.20;;;9.90;99.90;11.20;96897.00;;;;4974242;28;20204;-69
2022/10/24 02:13:01;;;;;;;6.00;2.67;;;10.00;99.90;11.20;96889.00;;;;4973383;28;20258;-70
2022/10/24 02:15:53;;;;;;;5.17;2.80;;;10.10;99.90;11.10;96883.00;;;;4973602;28;20289;-70
2022/10/24 02:18:42;;;;;;;4.93;2.30;;;10.00;99.90;10.90;96874.00;;;;4974971;28;20231;-72
2022/10/24 02:21:38;;;;;;;2.47;2.10;;;10.00;99.90;10.40;96876.00;;;;4974404;28;20199;-69
2022/10/24 02:24:31;;;;;;;6.60;3.20;;;9.80;99.90;10.60;96887.00;;;;4971053;28;20231;-71
2022/10/24 02:27:25;;;;;;;5.03;3.73;;;9.70;99.90;10.90;96877.00;;;;4975124;28;20270;-69
2022/10/24 02:30:17;;;;;;;3.00;2.43;;;9.70;99.90;10.80;96883.00;;;;4981142;28;20202;-69
2022/10/24 02:33:07;;;;;;;3.90;2.63;;;9.70;99.90;10.70;96888.00;;;;4972113;28;20203;-70
2022/10/24 02:35:57;;;;;;;6.83;3.17;;;9.60;99.90;10.80;96894.00;;;;4973391;28;20673;-69
2022/10/24 02:38:49;;;;;;;4.57;2.67;;;9.60;99.90;11.10;96907.00;;;;4974258;28;20227;-69
2022/10/24 02:41:41;;;;;;;5.30;3.17;;;9.70;99.90;11.20;96919.00;;;;4973727;28;20682;-69
2022/10/24 02:44:30;;;;;;;9.20;3.50;;;9.80;99.90;11.00;96902.00;;;;4976677;28;20219;-69
2022/10/24 02:47:21;;;;;;;6.03;3.10;;;9.70;99.90;11.30;96915.00;;;;4974488;28;20227;-69
2022/10/24 02:50:10;;;;;;;5.30;3.07;;;9.80;99.90;10.80;96911.00;;;;4973769;28;20207;-69
2022/10/24 02:52:59;;;;;;;5.73;2.80;;;9.80;99.90;11.00;96922.00;;;;4970523;28;20273;-69
2022/10/24 02:55:49;;;;;;;2.97;2.20;;;9.80;99.90;10.80;96926.00;;;;4971492;28;20207;-71
2022/10/24 02:58:38;;;;;;;9.37;2.83;;;9.70;99.90;10.10;96924.00;;;;4973302;28;20239;-69
2022/10/24 03:01:26;;;;;;;3.20;2.90;;;9.50;99.90;10.40;96919.00;;;;4971040;28;20206;-71
2022/10/24 03:04:15;;;;;;;4.50;3.50;;;9.40;99.90;10.70;96912.00;;;;4972752;28;20575;-71
2022/10/24 03:07:06;;;;;;;2.70;2.10;;;9.50;99.90;10.60;96913.00;;;;4973691;28;20240;-71
2022/10/24 03:09:54;;;;;;;3.70;2.80;;;9.50;99.90;10.70;96923.00;;;;4972615;28;20929;-70
2022/10/24 03:12:45;;;;;;;6.93;2.93;;;9.60;99.90;10.90;96932.00;;;;4979507;28;20282;-69
2022/10/24 03:15:33;;;;;;;9.90;3.07;;;9.70;99.90;11.10;96930.00;;;;4972183;28;20200;-69
2022/10/24 03:18:22;;;;;;;6.00;3.03;;;9.80;99.90;10.80;96932.00;;;;4972844;28;20223;-69
2022/10/24 03:21:11;;;;;;;5.60;3.33;;;9.80;99.90;10.60;96924.00;;;;4973309;28;20231;-69
2022/10/24 03:24:00;;;;;;;5.03;2.40;;;9.70;99.90;10.80;96927.00;;;;4974033;28;20690;-70
2022/10/24 03:26:51;;;;;;;5.07;2.80;;;9.70;99.90;10.70;96923.00;;;;4974149;28;20207;-70
2022/10/24 03:29:41;;;;;;;4.63;3.40;;;9.70;99.90;10.60;96918.00;;;;4972834;28;20230;-68
2022/10/24 03:32:29;;;;;;;9.50;2.83;;;9.70;99.90;10.40;96912.00;;;;4972276;28;20199;-69
2022/10/24 03:35:18;;;;;;;4.50;3.00;;;9.60;99.90;10.90;96909.00;;;;4972607;28;20298;-69
2022/10/24 03:38:07;;;;;;;3.23;2.87;;;9.70;99.90;10.90;96909.00;;;;4968000;28;20721;-69
2022/10/24 03:40:56;;;;;;;4.87;3.10;;;9.70;99.90;10.70;96896.00;;;;4966683;28;20618;-69
2022/10/24 03:43:45;;;;;;;4.40;2.93;;;9.70;99.90;10.60;96899.00;;;;4991849;28;20226;-69
2022/10/24 03:46:35;;;;;;;2.93;2.63;;;9.70;99.90;10.80;96910.00;;;;4965952;28;20682;-69
2022/10/24 03:49:24;;;;;;;7.37;3.10;;;9.70;99.90;10.80;96897.00;;;;4970817;28;20211;-69
2022/10/24 03:52:13;;;;;;;8.83;2.90;;;9.70;99.90;10.80;96934.00;;;;4972051;28;20235;-69
2022/10/24 03:55:02;;;;;;;6.57;3.70;;;9.70;99.90;10.70;96944.00;;;;4971389;28;20293;-69
2022/10/24 03:57:51;;;;;;;7.37;3.27;;;9.70;99.90;11.20;96914.00;;;;4972041;28;20238;-68
2022/10/24 04:00:40;;;;;;;5.10;2.93;;;9.80;99.90;11.20;96944.00;;;;4972229;28;20674;-68
2022/10/24 04:03:30;;;;;;;3.47;3.10;;;9.80;99.90;11.20;96953.00;;;;4971466;28;20244;-69
2022/10/24 04:06:19;;;;;;;11.27;3.53;;;9.90;99.90;11.40;96930.00;;;;4969179;28;20237;-69
2022/10/24 04:09:07;;;;;;;4.33;3.17;;;9.90;99.90;11.30;96938.00;;;;4981196;28;20854;-69
2022/10/24 04:11:56;;;;;;;3.47;3.10;;;9.90;99.90;10.70;96935.00;;;;4969869;28;20203;-69
2022/10/24 04:14:45;;;;;;;6.33;2.80;;;9.90;99.90;11.10;96945.00;;;;4974473;28;20210;-69
2022/10/24 04:17:33;;;;;;;6.77;3.30;;;9.90;99.90;11.20;96944.00;;;;4970343;28;20262;-69
2022/10/24 04:20:23;;;;;;;4.57;2.23;;;10.00;99.90;10.80;96950.00;;;;4980041;28;20250;-72
2022/10/24 04:23:12;;;;;;;6.27;3.43;;;10.00;99.90;11.30;96970.00;;;;4986785;28;20767;-69
2022/10/24 04:26:01;;;;;;;7.47;3.10;;;10.10;99.90;11.70;96969.00;;;;4970932;28;20246;-68
2022/10/24 04:28:50;;;;;;;7.53;3.73;;;10.20;99.90;11.80;96965.00;;;;4969596;28;20238;-69
2022/10/24 04:31:38;;;;;;;7.20;3.67;;;10.20;99.90;11.50;96965.00;;;;4968048;28;20207;-69
2022/10/24 04:34:27;;;;;;;3.87;2.90;;;10.20;99.90;11.50;96964.00;;;;4971409;28;20251;-69
2022/10/24 04:37:17;;;;;;;7.53;3.07;;;10.20;99.90;11.50;96974.00;;;;4984241;28;20280;-69
2022/10/24 04:40:07;;;;;;;7.33;3.70;;;10.20;99.90;11.20;96979.00;;;;4980895;28;20199;-69
2022/10/24 04:42:56;;;;;;;5.77;3.60;;;10.20;99.90;11.50;96967.00;;;;4971528;28;20363;-69
2022/10/24 04:45:45;;;;;;;6.53;2.23;;;10.20;99.90;11.60;96966.00;;;;4966774;28;20317;-69
2022/10/24 04:48:34;;;;;;;3.53;2.67;;;10.20;99.90;11.40;96954.00;;;;4966124;28;20658;-69
2022/10/24 04:51:23;;;;;;;7.60;2.60;;;10.20;99.90;11.10;96961.00;;;;4970385;28;20207;-71
2022/10/24 04:54:13;;;;;;;9.67;3.13;;;10.10;99.90;10.30;96958.00;;;;4972734;28;20231;-69
2022/10/24 04:57:01;;;;;;;2.87;2.50;;;9.90;99.90;10.60;96962.00;;;;4972866;28;20239;-67
2022/10/24 04:59:50;;;;;;;4.20;2.90;;;9.80;99.90;10.50;96967.00;;;;4967480;28;20203;-68
2022/10/24 05:02:39;;;;;;;5.87;2.70;;;9.70;99.90;10.80;96967.00;;;;4973712;28;20691;-68
2022/10/24 05:05:28;;;;;;;4.07;2.67;;;9.70;99.90;10.90;96954.00;;;;4971401;28;20838;-69
2022/10/24 05:08:17;;;;;;;6.67;3.40;;;9.70;99.90;10.90;96951.00;;;;4971603;28;20636;-68
2022/10/24 05:11:10;;;;;;;9.63;4.10;;;9.70;99.90;10.90;96950.00;;;;4978790;28;20241;-69
2022/10/24 05:13:58;;;;;;;5.53;4.70;;;9.70;99.90;11.10;96950.00;;;;4968641;28;20207;-68
2022/10/24 05:16:48;;;;;;;5.80;4.77;;;9.80;99.90;10.80;96961.00;;;;4969872;28;20203;-69
2022/10/24 05:19:36;;;;;;;5.70;3.37;;;9.80;99.90;10.70;96963.00;;;;4969529;28;20214;-69
2022/10/24 05:22:25;;;;;;;10.57;3.37;;;9.70;99.90;10.70;96966.00;;;;4970315;28;20254;-69
2022/10/24 05:25:14;;;;;;;10.03;3.53;;;9.70;99.90;11.00;96969.00;;;;4971607;28;20263;-69
2022/10/24 05:28:04;;;;;;;5.00;3.13;;;9.70;99.90;10.60;96962.00;;;;4971160;28;20227;-69
2022/10/24 05:30:53;;;;;;;11.03;3.90;;;9.60;99.90;10.30;96981.00;;;;4969623;28;20199;-69
2022/10/24 05:33:41;;;;;;;7.87;2.40;;;9.50;99.90;10.20;96980.00;;;;4968238;28;20704;-71
2022/10/24 05:36:30;;;;;;;8.00;2.90;;;9.40;99.90;10.40;96978.00;;;;4968796;28;20682;-68
2022/10/24 05:39:19;;;;;;;6.90;2.93;;;9.40;99.90;10.60;96983.00;;;;4972717;28;20701;-68
2022/10/24 05:42:09;;;;;;;3.83;2.87;;;9.40;99.90;10.50;96978.00;;;;4969864;28;20234;-69
2022/10/24 05:44:59;;;;;;;5.10;3.20;;;9.40;99.90;10.80;96997.00;;;;4969288;28;20341;-69
2022/10/24 05:47:48;;;;;;;3.73;2.70;;;9.50;99.90;10.90;96993.00;;;;4970073;28;20372;-69
2022/10/24 05:50:37;;;;;;;6.00;3.17;;;9.60;99.90;11.20;96999.00;;;;4967745;28;20196;-68
2022/10/24 05:53:26;;;;;;;4.97;2.67;;;9.60;99.90;11.00;97013.00;;;;4968549;28;20282;-69
2022/10/24 05:56:15;;;;;;;11.03;3.93;;;9.70;99.90;10.70;97016.00;;;;4963404;28;20274;-69
2022/10/24 05:59:04;;;;;;;11.77;4.10;;;9.70;99.90;10.70;97022.00;;;;4967880;28;20239;-69
2022/10/24 06:01:54;;;;;;;9.10;3.77;;;9.60;99.90;11.10;97028.00;;;;4970935;28;20203;-69
2022/10/24 06:04:43;;;;;;;5.27;4.13;;;9.70;99.90;11.10;97029.00;;;;4965778;28;20219;-68
2022/10/24 06:07:32;;;;;;;4.87;3.03;;;9.80;99.90;10.50;97037.00;;;;4970147;28;20227;-70
2022/10/24 06:10:20;;;;;;;5.43;2.33;;;9.70;99.90;10.20;97041.00;;;;4969228;28;20207;-69
2022/10/24 06:13:09;;;;;;;9.80;3.23;;;9.60;99.90;10.70;97037.00;;;;4970613;28;20199;-70
2022/10/24 06:15:58;;;;;;;5.47;2.80;;;9.60;99.90;10.80;97028.00;;;;4976269;28;20630;-68
2022/10/24 06:18:48;;;;;;;10.97;3.53;;;9.60;99.90;10.40;97032.00;;;;4968861;28;20663;-69
2022/10/24 06:21:36;;;;;;;8.90;2.83;;;9.60;99.90;10.80;97028.00;;;;4964198;28;20203;-69
2022/10/24 06:24:25;;;;;;;4.17;2.90;;;9.60;99.90;10.40;97042.00;;;;4969443;28;20293;-70
2022/10/24 06:27:14;;;;;;;6.27;3.97;;;9.60;99.90;10.80;97040.00;;;;4971402;28;20231;-69
2022/10/24 06:30:04;;;;;;;7.73;4.07;;;9.60;99.90;11.00;97057.00;;;;4971424;28;20572;-69
2022/10/24 06:32:53;;;;;;;4.70;3.60;;;9.70;99.90;10.60;97058.00;;;;4969825;28;20677;-68
2022/10/24 06:35:43;;;;;;;4.30;3.30;;;9.70;99.90;10.70;97065.00;;;;4970214;28;20703;-68
2022/10/24 06:38:32;;;;;;;6.20;3.23;;;9.60;99.90;10.80;97062.00;;;;4974972;28;20269;-68
2022/10/24 06:41:20;;;;;;;8.93;3.13;;;9.60;99.90;10.80;97054.00;;;;4969772;28;20254;-69
2022/10/24 06:44:09;;;;;;;5.07;3.30;;;9.60;99.90;10.80;97062.00;;;;4970867;28;20204;-69
2022/10/24 06:46:58;;;;;;;4.53;3.43;;;9.70;99.90;10.90;97068.00;;;;4971318;28;20216;-69
2022/10/24 06:49:47;;;;;;;6.43;4.27;;;9.70;99.90;11.00;97065.00;;;;4977127;28;20241;-68
2022/10/24 06:52:38;;;;;;;6.87;3.10;;;9.80;99.90;11.00;97051.00;;;;4972731;28;20206;-69
2022/10/24 06:55:27;;;;;;;6.10;3.87;;;9.90;99.90;11.20;97076.00;;;;4973167;28;20244;-69
2022/10/24 06:58:15;;;;;;;6.30;3.07;;;10.00;99.90;11.50;97072.00;;;;4986228;23;20728;-86
2022/10/24 07:01:08;;;;;;;11.07;3.00;;;10.10;99.90;11.40;97073.00;;;;4988985;28;20243;-86
2022/10/24 07:03:57;;;;;;;6.80;4.20;;;10.20;99.90;11.30;97084.00;;;;4989333;28;20252;-85
2022/10/24 07:06:46;;;;;;;9.03;4.77;;;10.30;99.90;11.50;97077.00;;;;4972891;28;20306;-86
2022/10/24 07:09:36;;;;;;;7.90;4.03;;;10.30;99.90;11.90;97079.00;;;;4963574;28;20203;-86
2022/10/24 07:12:26;;;;;;;5.53;3.20;;;10.40;99.90;11.50;97093.00;;;;4975526;28;20779;-85
2022/10/24 07:15:14;;;;;;;5.47;3.20;;;10.40;99.90;11.40;97090.00;;;;4973588;28;20211;-88
2022/10/24 07:18:03;;;;;;;6.07;4.50;;;10.40;99.90;11.80;97085.00;;;;4974854;28;20688;-85
2022/10/24 07:20:52;;;;;;;6.00;3.93;;;10.40;99.90;12.10;97103.00;;;;4974929;28;20573;-86
2022/10/24 07:23:41;;;;;;;5.30;3.33;;;10.60;99.90;12.00;97100.00;;;;4969149;28;20286;-88
2022/10/24 07:26:32;;;;;;;5.10;3.33;;;10.70;99.90;11.80;97109.00;;;;4974426;28;20310;-87
2022/10/24 07:29:20;;;;;;;7.63;3.63;;;10.70;99.90;12.10;97118.00;;;;4975744;28;20337;-87
2022/10/24 07:32:09;;;;;;;8.67;3.97;;;10.80;99.90;12.30;97114.00;;;;4973614;28;20207;-87
2022/10/24 07:34:58;;;;;;;5.77;3.40;;;10.80;99.90;12.30;97113.00;;;;4973698;28;20243;-88
2022/10/24 07:37:46;;;;;;;15.33;4.13;;;10.90;99.90;12.40;97116.00;;;;4964606;28;20705;-87
2022/10/24 07:40:35;;;;;;;6.00;3.27;;;11.00;99.90;12.50;97113.00;;;;4973121;28;20285;-88
2022/10/24 07:43:25;;;;;;;4.33;2.90;;;11.00;99.90;12.80;97103.00;;;;4973184;28;20242;-85
2022/10/24 07:46:17;;;;;;;7.23;3.37;;;11.20;99.90;12.80;97095.00;;;;4974516;28;21493;-85
2022/10/24 07:49:05;;;;;;;6.90;4.63;;;11.20;99.90;12.90;97089.00;;;;4976612;28;20203;-87
2022/10/24 07:51:54;;;;;;;5.57;3.90;;;11.30;99.90;13.10;97101.00;;;;4966585;28;20284;-86
2022/10/24 07:54:43;;;;;;;7.97;3.33;;;11.40;99.90;13.40;97098.00;;;;4960648;28;20203;-86
2022/10/24 07:57:32;;;;;;;6.13;3.43;;;11.50;99.90;13.00;97089.00;;;;4969777;28;20705;-86
2022/10/24 08:00:23;;;;;;;5.50;3.63;;;11.60;99.90;12.60;97089.00;;;;4963149;28;20203;-86
2022/10/24 08:03:12;;;;;;;8.77;4.13;;;11.60;99.90;12.70;97081.00;;;;4963299;28;20469;-86
2022/10/24 08:06:05;;;;;;;8.03;4.90;;;11.40;99.90;13.10;97081.00;;;;4971028;28;20269;-85
2022/10/24 08:08:53;;;;;;;7.23;4.80;;;11.60;99.90;13.30;97083.00;;;;4971165;28;21500;-86
2022/10/24 08:11:43;;;;;;;11.30;3.80;;;11.70;99.90;13.40;97084.00;;;;4972746;28;20331;-86
2022/10/24 08:14:32;;;;;;;6.17;3.63;;;11.80;99.90;13.20;97074.00;;;;4963184;28;20243;-85
2022/10/24 08:17:23;;;;;;;10.87;4.23;;;11.80;99.90;13.20;97080.00;;;;4972502;28;20254;-86
2022/10/24 08:20:12;;;;;;;4.83;3.33;;;11.90;99.90;13.30;97082.00;;;;4971121;28;20235;-87
2022/10/24 08:23:01;;;;;;;10.07;2.80;;;11.90;99.90;13.50;97087.00;;;;4972498;28;20638;-87
2022/10/24 08:25:50;;;;;;;7.40;3.80;;;12.00;99.90;13.70;97080.00;;;;4969596;28;20230;-85
2022/10/24 08:28:39;;;;;;;3.80;3.40;;;12.10;99.90;13.80;97075.00;;;;4967324;28;20728;-86
2022/10/24 08:31:27;;;;;;;7.50;3.10;;;12.20;99.90;13.70;97074.00;;;;4970629;28;20211;-86
2022/10/24 08:34:18;;;;;;;4.87;3.83;;;12.20;99.90;13.90;97069.00;;;;4969157;28;20199;-85
2022/10/24 08:37:07;;;;;;;10.50;5.97;;;12.30;99.90;14.10;97056.00;;;;4971479;28;20298;-86
2022/10/24 08:39:55;;;;;;;9.00;4.10;;;12.50;99.90;14.30;97051.00;;;;4970514;28;20230;-86
2022/10/24 08:42:45;;;;;;;5.80;3.93;;;12.50;99.90;14.40;97041.00;;;;4971993;28;20277;-85
2022/10/24 08:45:45;;;;;;;3.57;2.90;;;12.60;99.90;14.60;97035.00;;;;4970738;28;20250;-86
2022/10/24 08:48:42;;;;;;;6.43;3.67;;;12.80;99.90;14.70;97043.00;;;;4971917;28;20219;-85
2022/10/24 08:51:42;;;;;;;10.20;4.03;;;13.00;99.90;14.70;97043.00;;;;4964109;28;20199;-86
2022/10/24 08:54:36;;;;;;;7.37;4.30;;;13.10;99.90;14.70;97047.00;;;;4967727;28;20203;-85
2022/10/24 08:57:29;;;;;;;5.60;3.77;;;13.10;99.90;15.10;97050.00;;;;4970643;28;20310;-86
2022/10/24 09:00:22;;;;;;;14.47;4.07;;;13.30;99.90;15.10;97037.00;;;;4969678;28;20199;-85
2022/10/24 09:03:19;;;;;;;7.23;4.27;;;13.40;99.90;15.10;97043.00;;;;4966089;28;20272;-86
2022/10/24 09:06:18;;;;;;;5.57;3.47;;;13.50;99.90;15.00;97040.00;;;;4972657;28;20755;-86
2022/10/24 09:09:19;;;;;;;9.87;7.27;;;13.50;99.90;14.80;97047.00;;;;4967860;28;20199;-85
2022/10/24 09:12:13;;;;;;;11.47;3.60;;;13.50;99.90;15.10;97038.00;;;;4967828;28;20258;-86
2022/10/24 09:15:01;;;;;;;9.53;4.80;;;13.50;99.90;15.30;97034.00;;;;4969408;28;20258;-86
2022/10/24 09:17:51;;;;;;;5.73;3.80;;;13.60;99.90;15.40;97034.00;;;;4971645;28;20334;-86
2022/10/24 09:20:41;;;;;;;12.13;5.13;;;13.70;99.90;15.30;97031.00;;;;4966150;28;20199;-86
2022/10/24 09:23:33;;;;;;;15.83;4.60;;;13.70;99.90;15.50;97031.00;;;;4971601;28;20640;-86
2022/10/24 09:26:29;;;;;;;5.20;4.70;;;13.80;99.90;15.60;97024.00;;;;4969527;28;20585;-86
2022/10/24 09:29:18;;;;;;;12.50;4.47;;;13.90;99.90;15.80;97023.00;;;;4969066;28;20204;-86
2022/10/24 09:32:16;;;;;;;8.13;4.13;;;14.00;99.90;15.90;97015.00;;;;4973573;28;20226;-87
2022/10/24 09:35:09;;;;;;;8.40;4.67;;;14.20;99.90;16.30;97015.00;;;;4969229;28;20203;-86
2022/10/24 09:38:05;;;;;;;10.17;4.43;;;14.40;99.90;16.80;97016.00;;;;4969941;28;20230;-85
2022/10/24 09:40:56;;;;;;;5.57;4.00;;;14.60;99.90;16.90;97019.00;;;;4966410;28;20206;-86
2022/10/24 09:43:52;;;;;;;5.63;4.37;;;14.80;99.90;16.80;97023.00;;;;4968716;28;20215;-86
2022/10/24 09:46:44;;;;;;;9.00;4.17;;;15.00;99.90;16.70;97025.00;;;;4970235;28;20285;-85
2022/10/24 09:49:36;;;;;;;13.07;4.57;;;15.00;99.90;17.00;97024.00;;;;4970300;28;20192;-85
2022/10/24 09:52:28;;;;;;;9.13;3.77;;;15.10;99.90;16.90;97028.00;;;;4970123;28;20203;-87
2022/10/24 09:55:21;;;;;;;6.63;4.60;;;15.20;99.90;17.00;97033.00;;;;4970115;28;20191;-86
2022/10/24 09:58:19;;;;;;;5.10;3.70;;;15.30;99.90;17.50;97019.00;;;;4969928;28;20235;-87
2022/10/24 10:01:21;;;;;;;5.73;3.70;;;15.40;99.90;18.00;97021.00;;;;4970216;28;20231;-86
2022/10/24 10:04:17;;;;;;;9.90;4.20;;;15.70;99.90;18.40;97015.00;;;;4968304;28;20993;-86
2022/10/24 10:07:10;;;;;;;8.10;3.00;;;16.00;99.90;18.80;97004.00;;;;4971057;28;20258;-86
2022/10/24 10:10:04;;;;;;;7.83;3.70;;;16.30;99.90;19.20;97003.00;;;;4962146;28;20214;-85
2022/10/24 10:13:00;;;;;;;7.63;3.13;;;16.60;99.90;19.10;97004.00;;;;4971658;28;20254;-86
2022/10/24 10:15:51;;;;;;;8.97;3.70;;;16.90;99.90;18.40;97003.00;;;;4968232;28;20286;-86
2022/10/24 10:18:47;;;;;;;9.03;3.23;;;17.00;99.90;18.50;96988.00;;;;4970899;28;20223;-85
2022/10/24 10:21:55;;;;;;;13.33;3.93;;;16.90;99.90;18.60;96983.00;;;;4964098;28;20200;-86
2022/10/24 10:24:45;;;;;;;8.87;3.87;;;16.90;99.90;18.40;96988.00;;;;4967999;28;20204;-86
2022/10/24 10:27:36;;;;;;;10.67;3.40;;;16.90;99.90;18.80;96972.00;;;;4973922;28;20775;-85
2022/10/24 10:30:25;;;;;;;6.73;3.17;;;17.00;99.90;19.20;96980.00;;;;4973513;28;20218;-85
2022/10/24 10:33:19;;;;;;;7.30;4.23;;;17.10;99.90;19.40;96976.00;;;;4973864;28;20266;-85
2022/10/24 10:36:17;;;;;;;6.70;3.87;;;17.30;99.90;19.30;96969.00;;;;4972488;28;20215;-85
2022/10/24 10:39:28;;;;;;;7.87;3.53;;;17.40;99.90;19.50;96962.00;;;;4993582;23;20257;-65
2022/10/24 10:42:24;;;;;;;10.90;4.27;;;17.40;99.90;19.70;96957.00;;;;4990938;28;20674;-67
2022/10/24 10:45:28;;;;;;;5.50;3.23;;;17.50;99.90;19.70;96957.00;;;;4989685;28;20249;-65
2022/10/24 10:48:34;;;;;;;3.90;3.50;;;17.60;99.90;19.90;96962.00;;;;4984899;28;20765;-65
2022/10/24 10:51:43;;;;;;;9.27;3.07;;;17.70;99.90;20.10;96955.00;;;;4986478;28;20674;-65
2022/10/24 10:54:57;;;;;;;4.37;2.73;;;17.90;99.90;20.00;96952.00;;;;4985282;28;20215;-64
2022/10/24 10:57:54;;;;;;;8.27;4.00;;;18.00;99.90;19.90;96956.00;;;;4983190;28;20764;-65
2022/10/24 11:00:51;;;;;;;8.93;3.40;;;18.10;99.90;20.20;96954.00;;;;4990177;28;20277;-65
2022/10/24 11:03:45;;;;;;;6.73;3.43;;;18.10;99.90;20.30;96953.00;;;;4985421;28;20214;-64
2022/10/24 11:06:45;;;;;;;5.33;3.10;;;18.20;99.90;20.40;96948.00;;;;4983282;28;20282;-65
2022/10/24 11:09:41;;;;;;;7.80;2.87;;;18.30;99.90;20.40;96939.00;;;;4981299;28;20218;-66
2022/10/24 11:12:34;;;;;;;11.70;3.93;;;18.30;99.90;20.30;96945.00;;;;4984302;28;20261;-65
2022/10/24 11:15:27;;;;;;;6.27;3.00;;;18.30;99.90;20.20;96932.00;;;;4988873;28;20269;-66
2022/10/24 11:18:25;;;;;;;4.67;3.23;;;18.40;99.90;20.30;96931.00;;;;4989882;28;20230;-66
2022/10/24 11:21:16;;;;;;;4.27;2.97;;;18.40;99.90;20.30;96934.00;;;;4985255;28;20214;-64
2022/10/24 11:24:13;;;;;;;5.00;2.80;;;18.40;99.90;20.20;96931.00;;;;4990775;28;20217;-66
2022/10/24 11:27:09;;;;;;;4.87;2.90;;;18.30;99.90;20.20;96917.00;;;;4990640;28;20832;-66
2022/10/24 11:30:06;;;;;;;4.67;2.47;;;18.30;99.90;20.20;96924.00;;;;4983855;28;20245;-66
2022/10/24 11:32:59;;;;;;;8.13;3.23;;;18.30;99.90;20.20;96916.00;;;;4991871;28;20249;-65
2022/10/24 11:36:11;;;;;;;3.50;2.93;;;18.30;99.90;20.40;96911.00;;;;4987181;28;20202;-66
2022/10/24 11:39:10;;;;;;;6.03;2.67;;;18.40;99.90;20.50;96909.00;;;;4978606;28;20271;-66
2022/10/24 11:42:05;;;;;;;5.73;2.77;;;18.50;99.90;20.50;96916.00;;;;4989844;28;20194;-66
2022/10/24 11:45:03;;;;;;;4.93;3.00;;;18.50;99.90;20.80;96910.00;;;;4983734;28;20248;-65
2022/10/24 11:48:04;;;;;;;8.27;3.33;;;18.70;99.90;20.80;96905.00;;;;4989283;28;20639;-66
2022/10/24 11:50:59;;;;;;;7.80;3.50;;;18.80;99.90;21.00;96903.00;;;;4988048;28;20234;-65
2022/10/24 11:53:55;;;;;;;5.97;3.60;;;19.10;99.90;20.80;96904.00;;;;4986561;28;20199;-66
2022/10/24 11:56:50;;;;;;;7.87;3.30;;;19.20;99.90;21.20;96900.00;;;;4983695;28;20280;-65
2022/10/24 11:59:39;;;;;;;5.27;3.37;;;19.30;99.90;21.50;96901.00;;;;4985661;28;20230;-66
2022/10/24 12:03:12;;;;;;;6.00;3.67;;;19.40;99.90;21.60;96894.00;;;;4986112;28;20793;-66
2022/10/24 12:06:22;;;;;;;7.13;3.50;;;19.40;99.90;21.60;96891.00;;;;4986286;28;20211;-65
2022/10/24 12:09:40;;;;;;;14.40;3.20;;;19.50;99.90;21.80;96882.00;;;;4974647;28;20325;-66
2022/10/24 12:12:55;;;;;;;4.63;3.03;;;19.60;99.90;22.10;96860.00;;;;4972678;28;20242;-66
2022/10/24 12:15:53;;;;;;;12.30;3.00;;;19.70;99.90;22.30;96861.00;;;;4971710;28;20203;-66
2022/10/24 12:18:47;;;;;;;4.27;2.30;;;20.00;99.90;22.40;96865.00;;;;4971378;28;20222;-66
2022/10/24 12:21:40;;;;;;;7.30;3.30;;;20.20;99.90;22.30;96867.00;;;;4983580;28;20207;-65
2022/10/24 12:24:33;;;;;;;6.27;3.27;;;20.30;99.90;22.10;96864.00;;;;4987093;28;20293;-65
2022/10/24 12:27:34;;;;;;;6.70;2.77;;;20.30;99.90;21.00;96850.00;;;;4985944;28;20207;-66
2022/10/24 12:30:26;;;;;;;4.37;3.20;;;20.00;99.90;20.70;96854.00;;;;4974237;28;20262;-66
2022/10/24 12:33:26;;;;;;;9.77;3.47;;;19.70;99.90;21.10;96848.00;;;;5005239;28;20626;-66
2022/10/24 12:36:16;;;;;;;6.00;3.70;;;19.50;99.90;21.30;96842.00;;;;4978597;28;20244;-66
2022/10/24 12:39:05;;;;;;;5.20;3.13;;;19.40;99.90;21.50;96830.00;;;;4971429;28;20246;-65
2022/10/24 12:41:54;;;;;;;9.27;3.13;;;19.40;99.90;21.50;96834.00;;;;4972679;28;20630;-66
2022/10/24 12:44:46;;;;;;;11.10;3.97;;;19.40;99.90;21.50;96828.00;;;;4976630;28;20242;-66
2022/10/24 12:47:38;;;;;;;11.63;3.43;;;19.50;99.90;21.40;96824.00;;;;4983770;28;20276;-64
2022/10/24 12:51:02;;;;;;;6.70;3.37;;;19.50;99.90;22.00;96821.00;;;;4982837;28;20215;-65